Time;durP1;ratioP1;P1;durP2;ratioP2;P2;SDS_P1;SDS_P2;PMS_P1;PMS_P2;Temp;Humidity;BMP_temperature;BMP_pressure;BME280_temperature;BME280_humidity;BME280_pressure;Samples;Min_cycle;Max_cycle;Signal;HPM_P1;HPM_P2
2023/10/24 00:01:59;;;;;;;7.53;5.32;;;;;;;10.09;100.00;96499.06;5020407;28;20400;-86
2023/10/24 00:04:25;;;;;;;9.10;5.65;;;;;;;10.10;100.00;96489.28;5016957;28;20408;-84
2023/10/24 00:06:53;;;;;;;7.90;4.70;;;;;;;10.09;100.00;96467.34;5017188;28;20432;-85
2023/10/24 00:09:19;;;;;;;11.55;5.00;;;;;;;10.08;100.00;96465.75;5017439;28;20419;-85
2023/10/24 00:11:45;;;;;;;10.25;5.90;;;;;;;10.05;100.00;96473.47;5017698;28;20397;-85
2023/10/24 00:14:11;;;;;;;13.60;6.20;;;;;;;10.03;100.00;96483.50;5018492;28;20412;-85
2023/10/24 00:16:38;;;;;;;8.10;5.85;;;;;;;10.05;100.00;96494.63;5027934;28;20393;-84
2023/10/24 00:19:04;;;;;;;7.88;5.22;;;;;;;10.06;100.00;96477.69;5011735;28;20526;-84
2023/10/24 00:21:30;;;;;;;10.23;5.90;;;;;;;10.06;100.00;96489.06;5021072;28;20891;-84
2023/10/24 00:23:58;;;;;;;9.82;5.40;;;;;;;10.07;100.00;96487.97;5021094;28;20492;-85
2023/10/24 00:26:24;;;;;;;7.57;5.03;;;;;;;10.08;100.00;96494.06;5025142;28;20393;-85
2023/10/24 00:28:50;;;;;;;7.05;5.25;;;;;;;10.09;100.00;96501.72;5016476;28;20499;-84
2023/10/24 00:31:16;;;;;;;10.07;5.85;;;;;;;10.13;100.00;96490.63;5016815;28;20408;-84
2023/10/24 00:33:42;;;;;;;8.43;5.80;;;;;;;10.14;100.00;96498.28;5002132;28;20410;-83
2023/10/24 00:36:08;;;;;;;7.32;4.85;;;;;;;10.14;100.00;96500.16;4997869;28;20438;-84
2023/10/24 00:38:35;;;;;;;6.32;4.90;;;;;;;10.15;100.00;96505.13;4998713;28;20398;-84
2023/10/24 00:41:02;;;;;;;11.20;5.87;;;;;;;10.15;100.00;96515.72;5008212;28;20495;-84
2023/10/24 00:43:29;;;;;;;6.13;4.32;;;;;;;10.15;100.00;96518.34;5016551;28;20436;-84
2023/10/24 00:45:55;;;;;;;10.32;5.43;;;;;;;10.14;100.00;96502.78;5021230;28;20423;-84
2023/10/24 00:48:21;;;;;;;12.00;5.90;;;;;;;10.14;100.00;96500.16;5016457;28;20404;-83
2023/10/24 00:50:48;;;;;;;8.20;5.60;;;;;;;10.16;100.00;96500.66;5016181;28;20885;-84
2023/10/24 00:53:14;;;;;;;6.65;4.88;;;;;;;10.17;100.00;96496.94;5016803;28;20405;-83
2023/10/24 00:55:40;;;;;;;6.03;4.72;;;;;;;10.15;100.00;96497.19;5016177;28;20421;-85
2023/10/24 00:58:09;;;;;;;8.05;4.78;;;;;;;10.15;100.00;96493.78;5017528;28;20916;-85
2023/10/24 01:00:36;;;;;;;8.23;4.85;;;;;;;10.17;100.00;96502.22;5017315;28;20476;-85
2023/10/24 01:03:04;;;;;;;6.78;4.88;;;;;;;10.16;100.00;96498.78;5017686;28;20416;-84
2023/10/24 01:05:31;;;;;;;12.13;5.70;;;;;;;10.16;100.00;96501.44;5019969;28;20468;-84
2023/10/24 01:07:57;;;;;;;6.50;4.47;;;;;;;10.16;100.00;96496.16;5018818;28;20419;-85
2023/10/24 01:10:23;;;;;;;5.82;4.00;;;;;;;10.18;100.00;96496.72;5020041;28;20399;-84
2023/10/24 01:12:50;;;;;;;6.43;4.10;;;;;;;10.18;100.00;96486.13;5017252;28;20408;-84
2023/10/24 01:15:17;;;;;;;4.78;3.72;;;;;;;10.17;100.00;96481.06;5027171;28;20410;-84
2023/10/24 01:17:51;;;;;;;5.30;3.58;;;;;;;10.15;100.00;96470.75;5030863;28;20891;-85
2023/10/24 01:20:17;;;;;;;5.18;3.72;;;;;;;10.12;100.00;96466.03;5023002;28;20404;-83
2023/10/24 01:22:45;;;;;;;5.60;3.20;;;;;;;10.09;100.00;96461.25;5020066;28;20419;-84
2023/10/24 01:25:13;;;;;;;4.47;3.28;;;;;;;10.09;100.00;96471.84;5020014;28;20789;-84
2023/10/24 01:27:42;;;;;;;4.00;3.10;;;;;;;10.06;100.00;96464.47;5019873;28;20401;-84
2023/10/24 01:30:10;;;;;;;4.65;3.65;;;;;;;10.04;100.00;96456.81;5019666;28;20405;-84
2023/10/24 01:32:36;;;;;;;4.07;2.90;;;;;;;10.03;100.00;96463.16;5013060;28;20454;-82
2023/10/24 01:35:02;;;;;;;3.72;2.80;;;;;;;10.02;100.00;96455.47;5003740;28;20406;-82
2023/10/24 01:37:28;;;;;;;4.03;2.80;;;;;;;10.02;100.00;96466.84;5005071;28;20399;-83
2023/10/24 01:39:56;;;;;;;3.60;2.83;;;;;;;10.01;100.00;96467.09;5003403;28;20748;-83
2023/10/24 01:42:22;;;;;;;6.18;3.13;;;;;;;10.01;100.00;96453.88;5003925;28;20863;-83
2023/10/24 01:44:48;;;;;;;4.70;2.83;;;;;;;10.00;100.00;96465.53;5004137;28;20406;-82
2023/10/24 01:47:14;;;;;;;6.10;3.50;;;;;;;9.98;100.00;96447.31;5006480;28;20938;-84
2023/10/24 01:49:41;;;;;;;5.00;3.10;;;;;;;9.99;100.00;96450.75;5005723;28;20763;-82
2023/10/24 01:52:07;;;;;;;4.80;3.05;;;;;;;9.99;100.00;96445.47;5005698;28;20437;-82
2023/10/24 01:54:33;;;;;;;4.80;3.00;;;;;;;9.98;100.00;96451.81;5004895;28;20410;-84
2023/10/24 01:57:00;;;;;;;3.78;2.75;;;;;;;9.97;100.00;96456.31;5004973;28;20417;-84
2023/10/24 01:59:27;;;;;;;5.47;3.15;;;;;;;9.97;100.00;96458.16;5004808;28;20426;-84
2023/10/24 02:01:53;;;;;;;4.15;3.15;;;;;;;9.98;100.00;96449.16;5005279;28;20395;-83
2023/10/24 02:04:19;;;;;;;5.90;3.37;;;;;;;9.98;100.00;96457.09;5004772;28;20434;-84
2023/10/24 02:06:45;;;;;;;5.35;3.42;;;;;;;9.98;100.00;96457.88;5004606;28;20421;-84
2023/10/24 02:09:11;;;;;;;5.32;3.60;;;;;;;10.01;100.00;96464.47;5005213;28;20430;-84
2023/10/24 02:11:37;;;;;;;5.60;3.45;;;;;;;10.03;100.00;96462.34;5005973;28;20394;-82
2023/10/24 02:14:05;;;;;;;4.40;2.92;;;;;;;10.04;100.00;96459.44;5005980;28;20410;-84
2023/10/24 02:16:31;;;;;;;7.03;3.50;;;;;;;10.04;100.00;96467.38;5006181;28;20438;-84
2023/10/24 02:18:58;;;;;;;6.85;3.42;;;;;;;10.07;100.00;96474.75;4990566;28;20430;-84
2023/10/24 02:21:24;;;;;;;6.33;3.67;;;;;;;10.07;100.00;96469.47;5006736;28;20429;-83
2023/10/24 02:23:51;;;;;;;5.93;3.47;;;;;;;10.08;100.00;96468.41;5004697;28;20430;-84
2023/10/24 02:26:17;;;;;;;5.30;3.13;;;;;;;10.10;100.00;96460.22;5002670;28;20741;-84
2023/10/24 02:28:43;;;;;;;3.28;2.90;;;;;;;10.10;100.00;96465.50;5002616;28;20399;-82
2023/10/24 02:31:10;;;;;;;7.85;3.90;;;;;;;10.08;100.00;96465.75;4998589;28;20949;-83
2023/10/24 02:33:37;;;;;;;5.25;3.65;;;;;;;10.10;100.00;96454.91;4998639;28;20402;-83
2023/10/24 02:36:07;;;;;;;6.20;3.70;;;;;;;10.10;100.00;96461.00;4998413;28;20429;-83
2023/10/24 02:38:34;;;;;;;6.90;3.97;;;;;;;10.12;100.00;96449.38;4981008;28;20461;-83
2023/10/24 02:41:00;;;;;;;6.57;4.10;;;;;;;10.12;100.00;96460.75;5003109;28;20394;-84
2023/10/24 02:43:26;;;;;;;7.03;4.18;;;;;;;10.13;100.00;96459.69;4998339;28;20835;-84
2023/10/24 02:45:53;;;;;;;12.82;5.38;;;;;;;10.14;100.00;96455.97;4997341;28;20398;-85
2023/10/24 02:48:21;;;;;;;7.75;4.57;;;;;;;10.15;100.00;96452.25;4998498;28;20398;-84
2023/10/24 02:50:52;;;;;;;8.57;4.40;;;;;;;10.17;100.00;96457.28;4998530;28;20394;-82
2023/10/24 02:53:18;;;;;;;8.40;4.55;;;;;;;10.18;100.00;96457.03;4999327;28;20417;-85
2023/10/24 02:55:44;;;;;;;7.80;4.60;;;;;;;10.18;100.00;96472.91;4999507;28;20487;-85
2023/10/24 02:58:10;;;;;;;9.57;4.70;;;;;;;10.19;100.00;96476.34;4999261;28;20430;-85
2023/10/24 03:00:36;;;;;;;6.38;4.35;;;;;;;10.22;100.00;96473.97;4999242;28;20426;-84
2023/10/24 03:03:02;;;;;;;7.03;4.30;;;;;;;10.22;100.00;96481.91;4998900;28;20430;-85
2023/10/24 03:05:30;;;;;;;7.57;4.20;;;;;;;10.20;100.00;96470.78;5000531;28;20490;-85
2023/10/24 03:07:56;;;;;;;5.28;3.70;;;;;;;10.20;100.00;96468.16;5001423;28;20942;-85
2023/10/24 03:10:23;;;;;;;5.03;3.30;;;;;;;10.18;100.00;96470.25;5006501;28;20399;-83
2023/10/24 03:12:50;;;;;;;4.53;3.33;;;;;;;10.18;100.00;96458.88;5007126;28;20775;-84
2023/10/24 03:15:16;;;;;;;3.90;2.90;;;;;;;10.16;100.00;96459.13;5008134;28;20421;-84
2023/10/24 03:17:42;;;;;;;3.72;2.78;;;;;;;10.15;100.00;96456.78;5005589;28;20485;-84
2023/10/24 03:20:09;;;;;;;2.92;2.33;;;;;;;10.13;100.00;96461.53;4999424;28;20421;-84
2023/10/24 03:22:37;;;;;;;3.05;2.70;;;;;;;10.09;100.00;96454.13;5000007;28;20464;-85
2023/10/24 03:25:03;;;;;;;3.83;2.80;;;;;;;10.07;100.00;96458.88;5000624;28;20918;-85
2023/10/24 03:27:29;;;;;;;3.90;2.35;;;;;;;10.05;100.00;96462.88;4983152;28;20403;-84
2023/10/24 03:29:56;;;;;;;3.22;2.63;;;;;;;10.02;100.00;96450.19;4996896;28;20485;-83
2023/10/24 03:32:22;;;;;;;3.28;2.50;;;;;;;10.00;100.00;96452.31;4997013;28;20770;-83
2023/10/24 03:34:48;;;;;;;3.40;2.63;;;;;;;9.98;100.00;96442.03;4997052;28;20444;-83
2023/10/24 03:37:17;;;;;;;4.07;2.60;;;;;;;9.97;100.00;96435.16;5012576;28;20825;-83
2023/10/24 03:39:45;;;;;;;3.25;2.20;;;;;;;9.96;100.00;96425.63;5017801;28;20413;-82
2023/10/24 03:42:13;;;;;;;2.67;2.20;;;;;;;9.95;100.00;96410.81;5020300;28;20744;-83
2023/10/24 03:44:39;;;;;;;2.80;2.25;;;;;;;9.93;100.00;96394.44;5001549;28;20963;-83
2023/10/24 03:47:06;;;;;;;5.05;2.90;;;;;;;9.91;100.00;96396.59;5016543;28;20759;-82
2023/10/24 03:49:32;;;;;;;4.40;2.80;;;;;;;9.90;100.00;96388.91;5003846;28;20477;-83
2023/10/24 03:51:59;;;;;;;5.22;2.70;;;;;;;9.92;100.00;96384.16;5017441;28;20595;-84
2023/10/24 03:54:26;;;;;;;3.97;2.50;;;;;;;9.92;100.00;96384.91;5014830;28;20404;-84
2023/10/24 03:56:53;;;;;;;3.30;2.47;;;;;;;9.93;100.00;96380.44;5007424;28;20494;-84
2023/10/24 03:59:19;;;;;;;4.75;2.80;;;;;;;9.94;100.00;96366.94;5008186;28;20406;-84
2023/10/24 04:01:45;;;;;;;3.78;2.70;;;;;;;9.94;100.00;96376.72;5005195;28;20406;-82
2023/10/24 04:04:12;;;;;;;3.42;2.40;;;;;;;9.96;100.00;96367.47;5005044;28;20419;-85
2023/10/24 04:06:38;;;;;;;3.40;2.65;;;;;;;9.98;100.00;96359.28;5022680;28;20412;-84
2023/10/24 04:09:04;;;;;;;4.53;2.40;;;;;;;10.00;100.00;96378.28;5015997;28;20419;-83
2023/10/24 04:11:34;;;;;;;5.22;2.65;;;;;;;10.02;100.00;96376.16;5012736;28;20417;-83
2023/10/24 04:14:02;;;;;;;5.47;2.20;;;;;;;10.05;100.00;96394.13;5010967;28;20609;-84
2023/10/24 04:16:29;;;;;;;3.30;2.00;;;;;;;10.09;100.00;96397.81;5016178;28;20409;-84
2023/10/24 04:18:55;;;;;;;6.93;2.30;;;;;;;10.13;100.00;96390.94;4999843;28;20396;-83
2023/10/24 04:21:21;;;;;;;5.72;2.50;;;;;;;10.23;100.00;96396.19;5007242;28;20435;-80
2023/10/24 04:23:47;;;;;;;6.72;2.60;;;;;;;10.35;100.00;96387.94;5013379;28;20416;-81
2023/10/24 04:26:14;;;;;;;9.30;2.70;;;;;;;10.44;100.00;96395.03;5018963;28;20393;-80
2023/10/24 04:28:40;;;;;;;4.93;2.70;;;;;;;10.55;100.00;96387.78;5007939;28;20463;-81
2023/10/24 04:31:08;;;;;;;4.80;2.65;;;;;;;10.62;100.00;96395.44;5022249;28;20435;-80
2023/10/24 04:33:34;;;;;;;4.07;2.33;;;;;;;10.65;100.00;96392.25;5014900;28;20520;-80
2023/10/24 04:36:00;;;;;;;3.08;2.13;;;;;;;10.65;100.00;96385.09;5007267;28;20397;-79
2023/10/24 04:38:26;;;;;;;5.55;2.50;;;;;;;10.64;100.00;96380.06;5009477;28;20398;-80
2023/10/24 04:40:53;;;;;;;2.97;2.10;;;;;;;10.62;100.00;96382.19;5010720;28;20858;-80
2023/10/24 04:43:34;;;;;;;3.58;2.00;;;;;;;10.59;100.00;96380.91;4968337;28;20438;-81
2023/10/24 04:46:01;;;;;;;2.20;2.00;;;;;;;10.58;100.00;96381.97;5013571;28;20456;-80
2023/10/24 04:48:29;;;;;;;3.85;2.20;;;;;;;10.55;100.00;96385.16;5007209;28;20396;-80
2023/10/24 04:50:55;;;;;;;3.83;2.45;;;;;;;10.53;100.00;96384.63;5006143;28;20406;-79
2023/10/24 04:53:21;;;;;;;3.97;2.50;;;;;;;10.52;100.00;96379.63;5008243;28;20828;-80
2023/10/24 04:55:47;;;;;;;3.17;2.30;;;;;;;10.52;100.00;96391.00;5000795;28;20407;-80
2023/10/24 04:58:13;;;;;;;3.33;2.00;;;;;;;10.51;100.00;96383.34;5011913;28;20393;-80
2023/10/24 05:00:39;;;;;;;11.15;2.90;;;;;;;10.45;100.00;96377.28;5013964;28;20900;-80
2023/10/24 05:03:06;;;;;;;6.93;3.03;;;;;;;10.44;100.00;96375.72;5010819;28;20428;-81
2023/10/24 05:05:34;;;;;;;4.18;2.63;;;;;;;10.46;100.00;96371.72;5016679;28;20456;-79
2023/10/24 05:08:00;;;;;;;3.13;2.40;;;;;;;10.46;100.00;96373.56;4987961;28;20439;-79
2023/10/24 05:10:27;;;;;;;3.13;2.08;;;;;;;10.46;100.00;96368.28;5014737;28;20882;-80
2023/10/24 05:12:53;;;;;;;2.10;1.77;;;;;;;10.44;100.00;96367.78;5000924;28;20773;-80
2023/10/24 05:15:19;;;;;;;2.47;1.73;;;;;;;10.40;100.00;96362.22;5005152;28;20911;-80
2023/10/24 05:17:45;;;;;;;2.93;1.77;;;;;;;10.38;100.00;96358.28;5000900;28;20394;-80
2023/10/24 05:20:16;;;;;;;2.30;1.90;;;;;;;10.36;100.00;96349.84;5003645;28;20462;-82
2023/10/24 05:22:44;;;;;;;2.33;1.57;;;;;;;10.35;100.00;96345.59;4999847;28;20432;-80
2023/10/24 05:25:10;;;;;;;2.00;1.60;;;;;;;10.33;100.00;96343.22;5000154;28;20420;-81
2023/10/24 05:27:36;;;;;;;1.98;1.63;;;;;;;10.32;100.00;96338.22;5018249;28;20397;-80
2023/10/24 05:30:03;;;;;;;2.43;1.80;;;;;;;10.30;100.00;96341.13;5017730;28;20510;-81
2023/10/24 05:32:29;;;;;;;2.92;1.77;;;;;;;10.29;100.00;96355.44;5012926;28;20424;-82
2023/10/24 05:34:55;;;;;;;4.18;1.88;;;;;;;10.27;100.00;96348.84;5000914;28;20402;-82
2023/10/24 05:37:21;;;;;;;4.72;2.17;;;;;;;10.24;100.00;96346.72;4999119;28;20639;-83
2023/10/24 05:39:49;;;;;;;4.23;2.20;;;;;;;10.23;100.00;96345.13;4998248;28;20891;-81
2023/10/24 05:42:15;;;;;;;3.53;2.10;;;;;;;10.21;100.00;96339.34;4998782;28;20433;-81
2023/10/24 05:44:41;;;;;;;4.40;2.42;;;;;;;10.20;100.00;96337.78;4999414;28;20429;-80
2023/10/24 05:47:07;;;;;;;2.63;2.05;;;;;;;10.18;100.00;96342.53;4998377;28;20469;-79
2023/10/24 05:49:34;;;;;;;2.88;2.10;;;;;;;10.17;100.00;96347.03;4997990;28;20398;-80
2023/10/24 05:52:00;;;;;;;3.08;2.08;;;;;;;10.16;100.00;96334.03;4997372;28;20402;-82
2023/10/24 05:54:26;;;;;;;2.67;1.90;;;;;;;10.16;100.00;96331.41;4997982;28;20410;-82
2023/10/24 05:56:54;;;;;;;4.20;2.45;;;;;;;10.14;100.00;96341.47;4998263;28;20410;-81
2023/10/24 05:59:20;;;;;;;3.15;2.10;;;;;;;10.13;100.00;96327.47;4999539;28;20403;-83
2023/10/24 06:01:46;;;;;;;3.83;2.30;;;;;;;10.14;100.00;96333.53;5008641;28;20409;-82
2023/10/24 06:04:12;;;;;;;3.15;1.90;;;;;;;10.13;100.00;96324.81;5005598;28;20422;-82
2023/10/24 06:06:38;;;;;;;1.90;1.70;;;;;;;10.13;100.00;96337.25;5001628;28;20414;-82
2023/10/24 06:09:05;;;;;;;2.15;1.60;;;;;;;10.12;100.00;96338.31;5007488;28;20765;-82
2023/10/24 06:11:31;;;;;;;2.42;1.88;;;;;;;10.11;100.00;96340.16;5021676;28;20397;-82
2023/10/24 06:13:59;;;;;;;2.20;1.90;;;;;;;10.09;100.00;96340.44;5021514;28;20440;-83
2023/10/24 06:16:27;;;;;;;3.30;2.40;;;;;;;10.09;100.00;96342.28;5026533;28;20409;-82
2023/10/24 06:18:53;;;;;;;4.07;2.60;;;;;;;10.08;100.00;96341.50;5025223;28;20397;-80
2023/10/24 06:21:19;;;;;;;3.85;2.38;;;;;;;10.09;100.00;96351.00;5027113;28;20404;-79
2023/10/24 06:23:45;;;;;;;3.10;2.20;;;;;;;10.10;100.00;96354.44;5025602;28;20420;-81
2023/10/24 06:26:13;;;;;;;2.88;2.53;;;;;;;10.10;100.00;96354.44;5023611;28;20392;-82
2023/10/24 06:28:39;;;;;;;2.70;2.20;;;;;;;10.12;100.00;96362.91;5023649;28;20436;-82
2023/10/24 06:31:06;;;;;;;2.20;2.00;;;;;;;10.12;100.00;96360.25;5008718;28;20402;-80
2023/10/24 06:33:33;;;;;;;2.80;2.15;;;;;;;10.12;100.00;96365.53;5018665;28;20404;-79
2023/10/24 06:36:02;;;;;;;3.20;2.28;;;;;;;10.12;100.00;96365.53;5018626;28;20408;-80
2023/10/24 06:38:28;;;;;;;3.03;2.42;;;;;;;10.14;100.00;96354.69;5014462;28;20883;-81
2023/10/24 06:40:55;;;;;;;2.70;2.00;;;;;;;10.14;100.00;96352.06;5010021;28;20414;-83
2023/10/24 06:43:23;;;;;;;2.75;2.20;;;;;;;10.14;100.00;96347.56;5011694;28;20419;-80
2023/10/24 06:45:49;;;;;;;3.05;2.10;;;;;;;10.15;100.00;96346.47;5016103;28;20805;-81
2023/10/24 06:48:17;;;;;;;2.38;1.98;;;;;;;10.16;100.00;96341.97;5006800;28;20464;-82
2023/10/24 06:50:43;;;;;;;2.10;1.90;;;;;;;10.15;100.00;96343.81;5006500;28;20469;-83
2023/10/24 06:53:10;;;;;;;2.90;1.88;;;;;;;10.15;100.00;96343.06;5000647;28;20417;-83
2023/10/24 06:55:37;;;;;;;3.25;2.00;;;;;;;10.14;100.00;96344.13;5003305;28;20397;-82
2023/10/24 06:58:03;;;;;;;2.72;2.03;;;;;;;10.15;100.00;96335.13;5016536;28;20488;-83
2023/10/24 07:00:30;;;;;;;2.22;1.92;;;;;;;10.16;100.00;96339.34;5013183;28;20420;-83
2023/10/24 07:02:56;;;;;;;2.53;1.83;;;;;;;10.16;100.00;96358.63;5005399;28;20422;-82
2023/10/24 07:05:24;;;;;;;2.23;1.80;;;;;;;10.17;100.00;96354.97;4999190;28;20395;-81
2023/10/24 07:07:50;;;;;;;2.67;1.75;;;;;;;10.17;100.00;96351.50;4995302;28;20807;-81
2023/10/24 07:10:16;;;;;;;2.00;1.67;;;;;;;10.19;100.00;96349.41;5020334;28;20439;-80
2023/10/24 07:12:43;;;;;;;1.95;1.70;;;;;;;10.19;100.00;96359.97;5014494;28;20429;-82
2023/10/24 07:15:09;;;;;;;1.80;1.45;;;;;;;10.20;100.00;96356.28;5002820;28;20482;-82
2023/10/24 07:17:35;;;;;;;4.18;2.25;;;;;;;10.20;100.00;96367.66;5013269;28;20901;-83
2023/10/24 07:20:02;;;;;;;2.88;2.10;;;;;;;10.18;100.00;96364.47;5020652;28;20400;-83
2023/10/24 07:22:30;;;;;;;2.77;1.80;;;;;;;10.19;100.00;96367.91;5028746;28;20397;-81
2023/10/24 07:24:56;;;;;;;1.92;1.73;;;;;;;10.20;100.00;96358.94;5029942;28;20439;-82
2023/10/24 07:27:22;;;;;;;1.67;1.58;;;;;;;10.21;100.00;96360.50;5011826;28;20420;-81
2023/10/24 07:29:48;;;;;;;2.00;1.70;;;;;;;10.22;100.00;96357.59;5009652;28;20522;-83
2023/10/24 07:32:15;;;;;;;2.50;1.65;;;;;;;10.23;100.00;96366.28;5004533;28;20492;-83
2023/10/24 07:34:41;;;;;;;5.80;2.47;;;;;;;10.22;100.00;96372.69;5017867;28;20535;-83
2023/10/24 07:37:07;;;;;;;3.72;2.40;;;;;;;10.21;100.00;96368.44;5018652;28;20487;-83
2023/10/24 07:39:35;;;;;;;3.00;2.00;;;;;;;10.21;100.00;96371.88;5016018;28;20417;-83
2023/10/24 07:42:01;;;;;;;4.82;2.60;;;;;;;10.21;100.00;96371.88;5020235;28;20412;-82
2023/10/24 07:44:27;;;;;;;3.05;2.40;;;;;;;10.22;100.00;96368.19;5009603;28;20453;-85
2023/10/24 07:46:54;;;;;;;3.38;2.40;;;;;;;10.23;100.00;96367.09;5022149;28;20441;-84
2023/10/24 07:49:20;;;;;;;2.42;1.95;;;;;;;10.26;100.00;96357.81;5009201;28;20773;-85
2023/10/24 07:51:46;;;;;;;2.13;1.90;;;;;;;10.28;100.00;96361.78;5004437;28;20500;-84
2023/10/24 07:54:13;;;;;;;2.58;2.03;;;;;;;10.29;100.00;96375.81;5002671;28;20402;-84
2023/10/24 07:56:41;;;;;;;2.65;1.90;;;;;;;10.30;100.00;96366.81;5022362;28;20396;-84
2023/10/24 07:59:07;;;;;;;2.40;1.70;;;;;;;10.33;100.00;96374.19;5020286;28;20414;-84
2023/10/24 08:01:34;;;;;;;2.13;1.63;;;;;;;10.34;100.00;96384.50;5023053;28;20411;-81
2023/10/24 08:04:00;;;;;;;2.67;1.98;;;;;;;10.36;100.00;96392.97;5015950;28;20497;-83
2023/10/24 08:06:26;;;;;;;2.85;1.88;;;;;;;10.37;100.00;96389.25;5013678;28;20415;-86
2023/10/24 08:08:53;;;;;;;2.92;2.10;;;;;;;10.37;100.00;96380.53;5012954;28;20451;-82
2023/10/24 08:11:19;;;;;;;2.40;1.92;;;;;;;10.39;100.00;96381.00;5021869;28;20402;-81
2023/10/24 08:13:47;;;;;;;3.83;2.30;;;;;;;10.38;100.00;96377.56;5010073;28;20409;-81
2023/10/24 08:16:13;;;;;;;2.70;2.20;;;;;;;10.38;100.00;96377.56;5007532;28;20440;-81
2023/10/24 08:18:40;;;;;;;2.53;2.30;;;;;;;10.39;100.00;96373.88;4999664;28;20402;-82
2023/10/24 08:21:07;;;;;;;2.65;2.30;;;;;;;10.40;100.00;96372.81;5010923;28;20399;-82
2023/10/24 08:23:33;;;;;;;2.75;1.95;;;;;;;10.41;100.00;96377.03;5007493;28;20452;-81
2023/10/24 08:26:00;;;;;;;3.63;2.05;;;;;;;10.44;100.00;96371.22;5004481;28;20402;-81
2023/10/24 08:28:26;;;;;;;2.38;2.10;;;;;;;10.46;100.00;96371.72;5005406;28;21059;-80
2023/10/24 08:30:53;;;;;;;2.23;2.03;;;;;;;10.49;100.00;96362.44;5002355;28;20783;-81
2023/10/24 08:33:20;;;;;;;2.08;1.88;;;;;;;10.51;100.00;96362.97;5003927;28;20417;-80
2023/10/24 08:35:47;;;;;;;1.98;1.77;;;;;;;10.53;100.00;96363.47;5007437;28;20879;-80
2023/10/24 08:38:13;;;;;;;2.40;1.70;;;;;;;10.56;100.00;96368.22;4990600;28;20416;-81
2023/10/24 08:40:40;;;;;;;2.10;1.73;;;;;;;10.58;100.00;96370.59;5003897;28;20418;-80
2023/10/24 08:43:08;;;;;;;2.20;1.60;;;;;;;10.59;100.00;96375.63;5007100;28;20432;-82
2023/10/24 08:45:35;;;;;;;2.00;1.70;;;;;;;10.60;100.00;96377.16;5013578;28;20397;-83
2023/10/24 08:48:05;;;;;;;3.08;1.70;;;;;;;10.61;100.00;96388.53;5006915;28;20425;-82
2023/10/24 08:50:31;;;;;;;3.73;2.20;;;;;;;10.60;100.00;96393.03;5010956;28;20500;-83
2023/10/24 08:52:58;;;;;;;2.85;2.00;;;;;;;10.61;100.00;96399.13;5011631;28;20411;-84
2023/10/24 08:55:26;;;;;;;2.60;2.20;;;;;;;10.59;100.00;96394.13;5007443;28;20412;-83
2023/10/24 08:57:54;;;;;;;2.47;2.17;;;;;;;10.62;100.00;96384.84;5011101;28;20458;-83
2023/10/24 09:00:20;;;;;;;2.35;2.10;;;;;;;10.62;100.00;96385.63;5010490;28;20485;-83
2023/10/24 09:02:46;;;;;;;6.28;2.78;;;;;;;10.63;100.00;96394.38;5012427;28;20507;-83
2023/10/24 09:05:15;;;;;;;5.88;3.72;;;;;;;10.63;100.00;96399.66;5002951;28;20412;-82
2023/10/24 09:07:41;;;;;;;7.03;3.90;;;;;;;10.61;100.00;96402.56;5012215;28;20879;-84
2023/10/24 09:10:08;;;;;;;4.75;3.20;;;;;;;10.61;100.00;96405.22;5014833;28;20471;-84
2023/10/24 09:12:37;;;;;;;5.80;3.40;;;;;;;10.62;100.00;96411.31;5012681;28;20417;-83
2023/10/24 09:15:04;;;;;;;4.93;3.00;;;;;;;10.62;100.00;96412.09;5007738;28;20396;-86
2023/10/24 09:17:31;;;;;;;3.93;3.00;;;;;;;10.66;100.00;96409.72;5008779;28;20401;-82
2023/10/24 09:19:57;;;;;;;4.15;2.92;;;;;;;10.68;100.00;96402.25;5008282;28;20893;-82
2023/10/24 09:22:30;;;;;;;3.47;2.90;;;;;;;10.70;100.00;96398.28;5020301;28;20397;-83
2023/10/24 09:24:58;;;;;;;4.53;3.38;;;;;;;10.73;100.00;96395.09;5019986;28;20471;-82
2023/10/24 09:27:25;;;;;;;4.83;2.90;;;;;;;10.75;100.00;96390.28;4999786;28;20895;-82
2023/10/24 09:29:51;;;;;;;4.03;2.92;;;;;;;10.77;100.00;96393.47;5003144;28;20398;-84
2023/10/24 09:32:18;;;;;;;3.60;2.73;;;;;;;10.79;100.00;96399.28;5014082;28;20435;-82
2023/10/24 09:34:44;;;;;;;3.90;3.17;;;;;;;10.82;100.00;96400.59;5024407;28;20424;-82
2023/10/24 09:37:13;;;;;;;5.10;3.60;;;;;;;10.82;100.00;96400.59;5025372;28;20484;-81
2023/10/24 09:39:57;;;;;;;4.63;3.53;;;;;;;10.83;100.00;96395.00;5020627;28;20687;-82
2023/10/24 09:42:26;;;;;;;9.18;4.68;;;;;;;10.84;100.00;96399.22;5016093;28;20405;-81
2023/10/24 09:44:55;;;;;;;7.70;4.40;;;;;;;10.85;100.00;96395.53;5006065;28;20426;-82
2023/10/24 09:47:23;;;;;;;5.70;3.97;;;;;;;10.88;100.00;96396.03;5015814;28;20393;-81
2023/10/24 09:49:51;;;;;;;5.53;4.40;;;;;;;10.89;100.00;96401.06;5024691;28;20400;-79
2023/10/24 09:52:19;;;;;;;5.30;3.60;;;;;;;10.91;100.00;96396.28;5024094;28;20405;-80
2023/10/24 09:54:48;;;;;;;4.00;3.50;;;;;;;10.96;100.00;96398.91;5028805;28;20384;-81
2023/10/24 09:57:18;;;;;;;4.95;3.70;;;;;;;11.00;100.00;96396.47;5029732;28;20597;-80
2023/10/24 09:59:46;;;;;;;4.47;3.20;;;;;;;11.02;100.00;96392.47;5029425;28;20407;-81
2023/10/24 10:02:14;;;;;;;5.60;3.25;;;;;;;11.05;100.00;96393.78;5023278;28;20413;-80
2023/10/24 10:04:41;;;;;;;3.80;3.10;;;;;;;11.05;100.00;96377.91;5013348;28;20529;-80
2023/10/24 10:07:11;;;;;;;5.10;3.38;;;;;;;11.06;100.00;96390.06;5009229;28;20477;-81
2023/10/24 10:09:41;;;;;;;7.53;3.20;;;;;;;11.07;100.00;96373.09;5011298;28;20468;-81
2023/10/24 10:12:12;;;;;;;3.37;2.57;;;;;;;11.10;100.00;96367.25;5009761;28;20926;-83
2023/10/24 10:14:49;;;;;;;3.28;2.65;;;;;;;11.13;100.00;96374.63;5012956;28;20409;-83
2023/10/24 10:17:25;;;;;;;3.42;2.80;;;;;;;11.16;100.00;96376.72;4999530;28;20429;-82
2023/10/24 10:20:06;;;;;;;3.03;2.72;;;;;;;11.15;100.00;96362.69;5000949;28;20412;-81
2023/10/24 10:22:51;;;;;;;3.83;2.80;;;;;;;11.16;100.00;96356.34;5008476;28;20421;-80
2023/10/24 10:25:42;;;;;;;3.53;3.00;;;;;;;11.18;100.00;96348.91;5001999;28;20444;-78
2023/10/24 10:28:17;;;;;;;3.47;2.90;;;;;;;11.18;100.00;96348.13;5005558;28;20436;-83
2023/10/24 10:30:55;;;;;;;4.20;2.85;;;;;;;11.21;100.00;96345.69;5000123;28;20893;-82
2023/10/24 10:33:24;;;;;;;3.47;3.03;;;;;;;11.23;100.00;96338.25;5003738;28;20453;-82
2023/10/24 10:35:53;;;;;;;3.22;2.90;;;;;;;11.25;100.00;96337.97;5010177;28;20414;-83
2023/10/24 10:38:38;;;;;;;5.53;2.95;;;;;;;11.27;100.00;96343.00;5008282;28;20400;-82
2023/10/24 10:41:38;;;;;;;4.82;3.17;;;;;;;11.26;100.00;96342.22;5010539;28;20453;-82
2023/10/24 10:44:36;;;;;;;4.97;3.22;;;;;;;11.26;100.00;96342.22;5004336;28;20414;-75
2023/10/24 10:47:04;;;;;;;4.23;2.93;;;;;;;11.28;100.00;96347.22;5003349;28;20440;-78
2023/10/24 10:49:48;;;;;;;3.88;2.83;;;;;;;11.28;100.00;96344.59;5001153;28;20417;-79
2023/10/24 10:52:41;;;;;;;4.18;3.00;;;;;;;11.30;100.00;96332.63;4998763;28;20400;-77
2023/10/24 10:55:35;;;;;;;3.35;2.72;;;;;;;11.31;100.00;96323.59;5015656;28;20408;-78
2023/10/24 10:58:21;;;;;;;3.70;2.50;;;;;;;11.36;100.00;96320.88;5013423;28;20486;-82
2023/10/24 11:00:59;;;;;;;7.53;3.72;;;;;;;11.36;100.00;96317.44;5017587;28;20776;-82
2023/10/24 11:03:38;;;;;;;4.40;3.30;;;;;;;11.36;100.00;96314.81;5017043;28;20422;-83
2023/10/24 11:06:14;;;;;;;8.52;3.88;;;;;;;11.34;100.00;96312.47;5013538;28;20405;-83
2023/10/24 11:08:48;;;;;;;5.67;3.63;;;;;;;11.35;100.00;96319.31;4999601;28;20433;-83
2023/10/24 11:11:19;;;;;;;4.68;3.20;;;;;;;11.37;100.00;96308.44;5011080;28;20436;-80
2023/10/24 11:13:51;;;;;;;7.70;4.17;;;;;;;11.37;100.00;96319.81;5024717;28;20401;-83
2023/10/24 11:16:17;;;;;;;8.23;3.83;;;;;;;11.37;100.00;96319.81;5019175;28;20413;-82
2023/10/24 11:18:45;;;;;;;5.68;3.70;;;;;;;11.39;100.00;96317.69;5018624;28;20405;-82
2023/10/24 11:21:16;;;;;;;6.90;3.83;;;;;;;11.39;100.00;96312.41;5007177;28;20506;-83
2023/10/24 11:23:43;;;;;;;4.63;3.53;;;;;;;11.43;100.00;96313.41;5004481;28;20422;-83
2023/10/24 11:26:31;;;;;;;6.90;3.45;;;;;;;11.45;100.00;96313.91;5150250;27;20450;-82
2023/10/24 11:28:57;;;;;;;5.10;3.33;;;;;;;11.47;100.00;96321.59;5118817;28;20412;-83
2023/10/24 11:31:25;;;;;;;5.05;2.95;;;;;;;11.50;100.00;96316.50;5119810;28;20401;-83